createdAt,value
2019-03-16T00:01:56.606Z,98144.16
2019-03-16T00:04:15.748Z,98140.39
2019-03-16T00:06:45.687Z,98137.72
2019-03-16T00:09:15.349Z,98146.83
2019-03-16T00:11:43.591Z,98147.90
2019-03-16T00:14:13.776Z,98149.52
2019-03-16T00:16:41.988Z,98148.99
2019-03-16T00:19:11.192Z,98148.99
2019-03-16T00:21:39.367Z,98149.56
2019-03-16T00:24:09.061Z,98161.36
2019-03-16T00:26:37.111Z,98161.36
2019-03-16T00:29:06.817Z,98162.41
2019-03-16T00:31:35.725Z,98166.19
2019-03-16T00:34:05.284Z,98173.16
2019-03-16T00:36:34.054Z,98163.80
2019-03-16T00:39:02.113Z,98171.58
2019-03-16T00:41:30.094Z,98167.03
2019-03-16T00:43:58.406Z,98173.97
2019-03-16T00:46:26.727Z,98173.97
2019-03-16T00:48:54.751Z,98167.81
2019-03-16T00:51:23.051Z,98166.77
2019-03-16T00:53:52.096Z,98176.69
2019-03-16T00:56:20.375Z,98170.77
2019-03-16T00:58:49.676Z,98171.05
2019-03-16T01:01:18.266Z,98165.42
2019-03-16T01:03:47.565Z,98165.70
2019-03-16T01:06:15.564Z,98165.51
2019-03-16T01:08:43.581Z,98175.09
2019-03-16T01:11:11.477Z,98171.09
2019-03-16T01:13:39.260Z,98179.11
2019-03-16T01:16:07.783Z,98172.16
2019-03-16T01:18:36.564Z,98174.05
2019-03-16T01:21:04.537Z,98181.27
2019-03-16T01:23:32.926Z,98175.67
2019-03-16T01:26:01.549Z,98175.11
2019-03-16T01:28:29.486Z,98173.00
2019-03-16T01:30:57.305Z,98177.26
2019-03-16T01:33:25.823Z,98173.02
2019-03-16T01:35:53.877Z,98172.19
2019-03-16T01:38:22.445Z,98171.10
2019-03-16T01:40:50.719Z,98174.05
2019-03-16T01:43:18.861Z,98166.56
2019-03-16T01:45:47.502Z,98163.36
2019-03-16T01:48:15.552Z,98167.09
2019-03-16T01:50:43.773Z,98166.84
2019-03-16T01:53:12.691Z,98163.93
2019-03-16T01:55:41.019Z,98175.69
2019-03-16T01:58:09.547Z,98172.48
2019-03-16T02:00:37.408Z,98177.06
2019-03-16T02:03:05.916Z,98165.84
2019-03-16T02:05:34.401Z,98176.78
2019-03-16T02:08:02.233Z,98167.17
2019-03-16T02:10:30.437Z,98170.90
2019-03-16T02:12:58.355Z,98172.48
2019-03-16T02:15:26.303Z,98177.30
2019-03-16T02:17:54.522Z,98166.33
2019-03-16T02:20:22.763Z,98157.53
2019-03-16T02:22:50.543Z,98163.66
2019-03-16T02:25:20.035Z,98156.72
2019-03-16T02:27:48.418Z,98154.86
2019-03-16T02:33:11.790Z,98153.47
2019-03-16T02:35:25.267Z,98160.48
2019-03-16T02:37:52.516Z,98157.54
2019-03-16T02:40:19.902Z,98159.16
2019-03-16T02:42:47.019Z,98159.48
2019-03-16T02:45:14.377Z,98163.73
2019-03-16T02:47:41.779Z,98158.88
2019-03-16T02:50:08.856Z,98164.83
2019-03-16T02:52:36.746Z,98156.81
2019-03-16T02:55:04.421Z,98159.48
2019-03-16T02:57:31.724Z,98166.94
2019-03-16T02:59:59.138Z,98170.17
2019-03-16T03:02:26.474Z,98170.42
2019-03-16T03:04:54.124Z,98176.09
2019-03-16T03:07:21.267Z,98175.25
2019-03-16T03:09:48.955Z,98185.70
2019-03-16T03:12:15.991Z,98188.13
2019-03-16T03:14:43.064Z,98189.19
2019-03-16T03:17:10.099Z,98194.57
2019-03-16T03:19:37.678Z,98200.72
2019-03-16T03:22:05.396Z,98187.89
2019-03-16T03:24:33.120Z,98194.28
2019-03-16T03:27:00.926Z,98196.44
2019-03-16T03:29:28.811Z,98181.86
2019-03-16T03:31:56.949Z,98191.09
2019-03-16T03:34:24.562Z,98195.66
2019-03-16T03:36:52.325Z,98193.27
2019-03-16T03:39:20.091Z,98199.19
2019-03-16T03:41:48.013Z,98194.09
2019-03-16T03:44:16.037Z,98193.84
2019-03-16T03:46:44.000Z,98192.75
2019-03-16T03:49:11.738Z,98190.64
2019-03-16T03:51:39.482Z,98191.98
2019-03-16T03:54:07.406Z,98189.59
2019-03-16T03:56:35.134Z,98192.55
2019-03-16T03:59:02.961Z,98184.00
2019-03-16T04:01:30.771Z,98180.52
2019-03-16T04:04:13.995Z,98179.47
2019-03-16T04:06:28.591Z,98185.05
2019-03-16T04:08:56.707Z,98181.56
2019-03-16T04:11:24.432Z,98186.14
2019-03-16T04:13:53.404Z,98179.19
2019-03-16T04:16:21.427Z,98174.66
2019-03-16T04:18:51.666Z,98181.34
2019-03-16T04:21:19.323Z,98182.14
2019-03-16T04:23:47.427Z,98187.48
2019-03-16T04:26:15.551Z,98187.20
2019-03-16T04:28:43.150Z,98185.63
2019-03-16T04:31:11.357Z,98192.03
2019-03-16T04:33:39.657Z,98191.47
2019-03-16T04:36:07.768Z,98200.86
2019-03-16T04:38:35.724Z,98203.53
2019-03-16T04:41:03.760Z,98204.63
2019-03-16T04:43:31.769Z,98205.16
2019-03-16T04:45:59.872Z,98209.72
2019-03-16T04:48:28.051Z,98207.30
2019-03-16T04:50:56.325Z,98215.31
2019-03-16T04:53:26.470Z,98212.64
2019-03-16T04:55:54.934Z,98213.21
2019-03-16T04:58:22.694Z,98196.08
2019-03-16T05:00:50.399Z,98210.54
2019-03-16T05:03:19.047Z,98210.00
2019-03-16T05:05:47.115Z,98209.45
2019-03-16T05:08:14.761Z,98218.03
2019-03-16T05:10:42.842Z,98219.64
2019-03-16T05:13:10.439Z,98216.70
2019-03-16T05:15:38.231Z,98217.25
2019-03-16T05:18:05.947Z,98214.86
2019-03-16T05:20:34.312Z,98218.35
2019-03-16T05:23:02.067Z,98209.80
2019-03-16T05:25:30.157Z,98219.93
2019-03-16T05:27:58.725Z,98214.62
2019-03-16T05:30:26.800Z,98222.92
2019-03-16T05:32:55.009Z,98221.55
2019-03-16T05:35:23.132Z,98230.38
2019-03-16T05:37:50.899Z,98232.48
2019-03-16T05:40:18.665Z,98234.84
2019-03-16T05:42:47.304Z,98229.24
2019-03-16T05:45:15.066Z,98224.14
2019-03-16T05:47:45.117Z,98231.11
2019-03-16T05:50:12.928Z,98224.47
2019-03-16T05:52:40.769Z,98236.73
2019-03-16T05:55:08.734Z,98238.88
2019-03-16T05:57:36.654Z,98239.94
2019-03-16T06:00:08.408Z,98240.74
2019-03-16T06:02:35.475Z,98248.20
2019-03-16T06:05:10.373Z,98240.74
2019-03-16T06:07:33.940Z,98246.38
2019-03-16T06:10:01.632Z,98249.53
2019-03-16T06:12:31.408Z,98257.55
2019-03-16T06:14:59.298Z,98256.22
2019-03-16T06:17:26.875Z,98255.41
2019-03-16T06:19:55.225Z,98263.18
2019-03-16T06:22:23.360Z,98263.18
2019-03-16T06:24:51.665Z,98261.56
2019-03-16T06:27:20.285Z,98270.92
2019-03-16T06:29:48.187Z,98273.09
2019-03-16T06:32:15.948Z,98274.92
2019-03-16T06:34:43.662Z,98277.07
2019-03-16T06:37:11.793Z,98279.46
2019-03-16T06:39:39.685Z,98270.92
2019-03-16T06:42:07.481Z,98281.61
2019-03-16T06:44:35.627Z,98286.14
2019-03-16T06:47:03.361Z,98285.34
2019-03-16T06:49:31.181Z,98286.11
2019-03-16T06:51:59.442Z,98286.06
2019-03-16T06:54:28.107Z,98286.03
2019-03-16T06:56:55.930Z,98291.91
2019-03-16T06:59:23.935Z,98288.45
2019-03-16T07:01:54.162Z,98292.27
2019-03-16T07:04:22.383Z,98309.38
2019-03-16T07:06:51.374Z,98305.34
2019-03-16T07:09:19.308Z,98302.14
2019-03-16T07:11:51.120Z,98301.33
2019-03-16T07:14:18.976Z,98301.33
2019-03-16T07:16:46.636Z,98302.67
2019-03-16T07:19:14.473Z,98301.08
2019-03-16T07:21:42.423Z,98301.86
2019-03-16T07:24:13.740Z,98309.87
2019-03-16T07:26:41.836Z,98302.67
2019-03-16T07:29:09.978Z,98307.73
2019-03-16T07:31:37.797Z,98311.74
2019-03-16T07:34:06.439Z,98319.48
2019-03-16T07:36:36.052Z,98319.23
2019-03-16T07:39:06.032Z,98322.16
2019-03-16T07:41:34.150Z,98320.50
2019-03-16T07:44:02.095Z,98320.50
2019-03-16T07:46:30.773Z,98314.84
2019-03-16T07:48:58.618Z,98314.84
2019-03-16T07:51:26.699Z,98327.36
2019-03-16T07:53:55.214Z,98275.20
2019-03-16T07:56:22.993Z,98320.36
2019-03-16T07:58:50.872Z,98322.70
2019-03-16T08:01:19.104Z,98325.84
2019-03-16T08:03:47.930Z,98317.56
2019-03-16T08:06:16.149Z,98327.70
2019-03-16T08:08:46.154Z,98335.45
2019-03-16T08:11:13.946Z,98335.44
2019-03-16T08:13:41.563Z,98338.39
2019-03-16T08:16:09.681Z,98345.38
2019-03-16T08:18:37.672Z,98349.38
2019-03-16T08:21:05.926Z,98356.34
2019-03-16T08:23:34.033Z,98351.81
2019-03-16T08:26:01.932Z,98357.69
2019-03-16T08:28:29.553Z,98364.09
2019-03-16T08:30:57.222Z,98364.09
2019-03-16T08:33:25.397Z,98365.42
2019-03-16T08:35:53.485Z,98371.55
2019-03-16T08:38:21.963Z,98372.08
2019-03-16T08:40:50.448Z,98369.69
2019-03-16T08:43:18.427Z,98376.90
2019-03-16T08:45:46.430Z,98375.03
2019-03-16T08:48:22.629Z,98372.57
2019-03-16T08:50:44.659Z,98373.91
2019-03-16T08:53:12.926Z,98372.00
2019-03-16T08:55:40.791Z,98374.56
2019-03-16T08:58:09.436Z,98374.28
2019-03-16T09:00:37.116Z,98364.26
2019-03-16T09:03:04.836Z,98366.54
2019-03-16T09:05:33.506Z,98376.95
2019-03-16T09:08:02.308Z,98371.03
2019-03-16T09:10:30.284Z,98367.22
2019-03-16T09:12:58.308Z,98360.48
2019-03-16T09:15:26.503Z,98365.19
2019-03-16T09:17:54.496Z,98357.55
2019-03-16T09:20:22.525Z,98354.73
2019-03-16T09:22:50.336Z,98356.03
2019-03-16T09:25:18.069Z,98352.78
2019-03-16T09:27:46.838Z,98350.83
2019-03-16T09:30:14.674Z,98347.09
2019-03-16T09:32:42.570Z,98348.34
2019-03-16T09:35:10.355Z,98348.70
2019-03-16T09:37:38.173Z,98348.66
2019-03-16T09:40:06.466Z,98345.73
2019-03-16T09:42:34.490Z,98344.93
2019-03-16T09:45:02.184Z,98336.72
2019-03-16T09:47:30.067Z,98332.03
2019-03-16T09:49:58.247Z,98340.12
2019-03-16T09:52:26.428Z,98340.12
2019-03-16T09:54:55.874Z,98329.20
2019-03-16T09:57:27.041Z,98318.12
2019-03-16T09:59:55.169Z,98318.98
2019-03-16T10:02:23.411Z,98318.20
2019-03-16T10:04:51.397Z,98317.69
2019-03-16T10:07:19.133Z,98319.64
2019-03-16T10:09:47.401Z,98320.45
2019-03-16T10:12:16.088Z,98321.52
2019-03-16T10:14:46.846Z,98319.64
2019-03-16T10:17:14.692Z,98322.08
2019-03-16T10:19:42.996Z,98323.43
2019-03-16T10:22:11.562Z,98319.79
2019-03-16T10:24:39.587Z,98312.52
2019-03-16T10:27:07.418Z,98315.01
2019-03-16T10:29:35.443Z,98324.70
2019-03-16T10:32:03.135Z,98318.26
2019-03-16T10:34:30.881Z,98314.77
2019-03-16T10:36:59.883Z,98313.52
2019-03-16T10:39:29.934Z,98311.13
2019-03-16T10:41:57.811Z,98307.41
2019-03-16T10:44:25.595Z,98308.80
2019-03-16T10:46:53.455Z,98319.25
2019-03-16T10:50:59.219Z,98306.35
2019-03-16T10:53:27.903Z,98310.66
2019-03-16T10:55:55.969Z,98305.53
2019-03-16T10:58:24.320Z,98301.48
2019-03-16T11:00:52.088Z,98297.08
2019-03-16T11:03:20.117Z,98300.39
2019-03-16T11:05:48.250Z,98298.12
2019-03-16T11:08:16.888Z,98289.02
2019-03-16T11:10:45.935Z,98291.28
2019-03-16T11:13:13.689Z,98290.12
2019-03-16T11:15:42.013Z,98284.92
2019-03-16T11:18:10.102Z,98288.59
2019-03-16T11:20:38.465Z,98283.53
2019-03-16T11:23:06.751Z,98281.14
2019-03-16T11:25:34.690Z,98280.22
2019-03-16T11:28:02.671Z,98271.05
2019-03-16T11:30:30.554Z,98262.06
2019-03-16T11:32:59.136Z,98252.64
2019-03-16T11:35:27.397Z,98250.25
2019-03-16T11:37:55.151Z,98264.63
2019-03-16T11:40:23.686Z,98258.12
2019-03-16T11:42:51.727Z,98258.08
2019-03-16T11:45:20.115Z,98248.02
2019-03-16T11:47:48.755Z,98248.02
2019-03-16T11:50:17.443Z,98249.34
2019-03-16T11:52:46.185Z,98243.52
2019-03-16T11:55:14.318Z,98244.14
2019-03-16T11:57:42.601Z,98242.61
2019-03-16T12:00:10.700Z,98236.45
2019-03-16T12:02:38.866Z,98241.56
2019-03-16T12:05:08.813Z,98236.96
2019-03-16T12:07:36.562Z,98234.67
2019-03-16T12:10:05.342Z,98230.61
2019-03-16T12:12:33.723Z,98225.17
2019-03-16T12:15:01.631Z,98223.32
2019-03-16T12:17:30.970Z,98226.24
2019-03-16T12:19:59.161Z,98230.70
2019-03-16T12:22:27.690Z,98223.63
2019-03-16T12:24:55.431Z,98216.73
2019-03-16T12:27:23.954Z,98207.59
2019-03-16T12:29:51.803Z,98202.03
2019-03-16T12:32:20.643Z,98196.91
2019-03-16T12:34:48.846Z,98201.41
2019-03-16T12:37:16.961Z,98183.20
2019-03-16T12:39:44.806Z,98187.40
2019-03-16T12:42:23.347Z,98175.81
2019-03-16T12:44:52.445Z,98176.34
2019-03-16T12:47:20.393Z,98173.48
2019-03-16T12:49:49.096Z,98168.12
2019-03-16T12:52:19.689Z,98170.59
2019-03-16T12:54:48.222Z,98167.88
2019-03-16T12:57:16.738Z,98158.44
2019-03-16T12:59:47.253Z,98155.91
2019-03-16T13:02:15.865Z,98119.69
2019-03-16T13:04:43.833Z,98155.52
2019-03-16T13:07:11.574Z,98148.10
2019-03-16T13:09:42.292Z,98140.48
2019-03-16T13:12:11.255Z,98144.05
2019-03-16T13:14:40.045Z,98143.69
2019-03-16T13:17:08.386Z,98148.19
2019-03-16T13:19:36.828Z,98128.17
2019-03-16T13:22:04.835Z,98129.62
2019-03-16T13:24:32.650Z,98133.37
2019-03-16T13:27:01.016Z,98134.23
2019-03-16T13:29:29.472Z,98125.98
2019-03-16T13:31:57.631Z,98116.39
2019-03-16T13:34:26.107Z,98131.13
2019-03-16T13:36:53.856Z,98117.84
2019-03-16T13:39:22.956Z,98115.22
2019-03-16T13:41:51.344Z,98109.89
2019-03-16T13:44:19.524Z,98110.22
2019-03-16T13:46:47.761Z,98109.17
2019-03-16T13:49:15.755Z,98106.97
2019-03-16T13:51:44.416Z,98116.86
2019-03-16T13:54:12.508Z,98112.72
2019-03-16T13:56:41.021Z,98115.56
2019-03-16T13:59:08.753Z,98108.11
2019-03-16T14:01:36.825Z,98114.33
2019-03-16T14:04:04.737Z,98106.53
2019-03-16T14:06:33.569Z,98101.53
2019-03-16T14:09:02.256Z,98109.27
2019-03-16T14:11:30.423Z,98107.28
2019-03-16T14:13:58.408Z,98093.73
2019-03-16T14:16:26.210Z,98085.78
2019-03-16T14:18:54.434Z,98094.86
2019-03-16T14:21:22.154Z,98088.37
2019-03-16T14:23:49.887Z,98080.63
2019-03-16T14:26:17.996Z,98078.19
2019-03-16T14:28:45.755Z,98068.37
2019-03-16T14:31:13.936Z,98070.80
2019-03-16T14:33:41.710Z,98069.52
2019-03-16T14:36:10.386Z,98060.95
2019-03-16T14:38:38.468Z,98066.01
2019-03-16T14:41:06.948Z,98067.11
2019-03-16T14:43:34.760Z,98060.31
2019-03-16T14:46:03.256Z,98060.45
2019-03-16T14:51:15.691Z,98056.59
2019-03-16T14:53:42.908Z,98058.07
2019-03-16T14:56:10.012Z,98059.47
2019-03-16T14:58:37.099Z,98053.87
2019-03-16T15:01:05.037Z,98056.28
2019-03-16T15:03:32.543Z,98061.92
2019-03-16T15:06:00.037Z,98057.37
2019-03-16T15:08:27.557Z,98053.20
2019-03-16T15:10:55.348Z,98045.76
2019-03-16T15:13:22.842Z,98042.33
2019-03-16T15:15:50.110Z,98040.45
2019-03-16T15:18:17.466Z,98036.23
2019-03-16T15:20:44.540Z,98029.30
2019-03-16T15:23:11.916Z,98034.17
2019-03-16T15:25:38.982Z,98028.55
2019-03-16T15:28:06.425Z,98024.29
2019-03-16T15:30:33.624Z,98026.72
2019-03-16T15:33:00.805Z,98017.84
2019-03-16T15:35:28.183Z,98019.44
2019-03-16T15:37:55.830Z,98019.44
2019-03-16T15:40:23.697Z,98007.70
2019-03-16T15:42:50.864Z,98001.53
2019-03-16T15:45:18.111Z,98002.34
2019-03-16T15:47:46.182Z,97998.11
2019-03-16T15:50:13.229Z,97992.52
2019-03-16T15:52:40.609Z,97994.92
2019-03-16T15:55:08.048Z,97990.43
2019-03-16T15:57:35.263Z,97986.18
2019-03-16T16:00:02.762Z,97980.55
2019-03-16T16:02:30.750Z,97977.40
2019-03-16T16:04:59.095Z,97971.24
2019-03-16T16:07:27.451Z,97966.94
2019-03-16T16:09:55.458Z,97964.34
2019-03-16T16:12:23.691Z,97955.61
2019-03-16T16:14:51.745Z,97957.52
2019-03-16T16:17:19.534Z,97953.23
2019-03-16T16:19:48.058Z,97943.58
2019-03-16T16:22:17.319Z,97943.58
2019-03-16T16:24:45.239Z,97935.58
2019-03-16T16:27:13.400Z,97938.25
2019-03-16T16:29:41.448Z,97933.44
2019-03-16T16:32:09.262Z,97924.95
2019-03-16T16:34:37.652Z,97927.39
2019-03-16T16:37:05.549Z,97920.70
2019-03-16T16:39:34.081Z,97912.67
2019-03-16T16:42:01.755Z,97917.55
2019-03-16T16:44:29.930Z,97911.45
2019-03-16T16:46:57.618Z,97913.85
2019-03-16T16:49:25.339Z,97912.03
2019-03-16T16:51:53.532Z,97908.38
2019-03-16T16:54:21.246Z,97911.36
2019-03-16T16:56:49.177Z,97911.63
2019-03-16T16:59:16.861Z,97908.45
2019-03-16T17:01:44.671Z,97894.56
2019-03-16T17:04:12.487Z,97898.09
2019-03-16T17:06:40.080Z,97885.80
2019-03-16T17:09:08.346Z,97893.81
2019-03-16T17:11:36.430Z,97888.82
2019-03-16T17:14:04.109Z,97890.16
2019-03-16T17:16:31.826Z,97887.83
2019-03-16T17:19:00.638Z,97880.91
2019-03-16T17:21:28.858Z,97881.49
2019-03-16T17:23:56.905Z,97882.32
2019-03-16T17:26:24.888Z,97886.67
2019-03-16T17:28:52.680Z,97881.38
2019-03-16T17:31:20.302Z,97879.77
2019-03-16T17:33:48.724Z,97879.05
2019-03-16T17:36:16.611Z,97881.51
2019-03-16T17:38:44.680Z,97875.92
2019-03-16T17:41:12.718Z,97872.50
2019-03-16T17:43:40.529Z,97868.78
2019-03-16T17:46:09.179Z,97871.98
2019-03-16T17:48:38.282Z,97871.50
2019-03-16T17:51:06.347Z,97867.22
2019-03-16T17:53:34.258Z,97875.00
2019-03-16T17:56:03.391Z,97867.34
2019-03-16T17:58:31.152Z,97867.34
2019-03-16T18:00:59.136Z,97871.65
2019-03-16T18:03:27.353Z,97871.94
2019-03-16T18:05:55.285Z,97872.23
2019-03-16T18:08:23.804Z,97872.54
2019-03-16T18:10:51.714Z,97870.48
2019-03-16T18:13:20.390Z,97866.47
2019-03-16T18:15:48.582Z,97869.73
2019-03-16T18:18:16.291Z,97859.63
2019-03-16T18:20:44.061Z,97859.11
2019-03-16T18:23:12.380Z,97861.53
2019-03-16T18:25:41.921Z,97862.16
2019-03-16T18:28:09.709Z,97858.69
2019-03-16T18:30:37.519Z,97855.27
2019-03-16T18:33:05.378Z,97858.45
2019-03-16T18:35:33.582Z,97858.64
2019-03-16T18:38:01.474Z,97855.02
2019-03-16T18:40:29.279Z,97854.46
2019-03-16T18:42:58.367Z,97859.32
2019-03-16T18:45:26.248Z,97857.18
2019-03-16T18:47:53.943Z,97860.70
2019-03-16T18:50:23.090Z,97865.02
2019-03-16T18:52:50.911Z,97869.02
2019-03-16T18:55:18.594Z,97862.91
2019-03-16T18:57:46.515Z,97856.25
2019-03-16T19:00:14.437Z,97850.91
2019-03-16T19:02:42.192Z,97849.33
2019-03-16T19:05:11.448Z,97839.73
2019-03-16T19:07:39.569Z,97844.03
2019-03-16T19:10:09.133Z,97837.89
2019-03-16T19:12:37.149Z,97837.13
2019-03-16T19:15:07.171Z,97835.04
2019-03-16T19:17:35.488Z,97827.32
2019-03-16T19:20:05.152Z,97828.66
2019-03-16T19:22:33.172Z,97829.50
2019-03-16T19:25:02.263Z,97825.50
2019-03-16T19:27:30.169Z,97819.41
2019-03-16T19:29:57.998Z,97818.60
2019-03-16T19:32:33.748Z,97815.45
2019-03-16T19:34:56.464Z,97815.93
2019-03-16T19:37:25.402Z,97819.16
2019-03-16T19:39:53.777Z,97812.27
2019-03-16T19:42:21.679Z,97813.59
2019-03-16T19:44:49.503Z,97806.41
2019-03-16T19:47:17.753Z,97807.50
2019-03-16T19:49:45.678Z,97805.37
2019-03-16T19:52:13.140Z,97793.13
2019-03-16T19:54:41.626Z,97798.70
2019-03-16T19:57:16.034Z,97796.88
2019-03-16T19:59:39.369Z,97788.07
2019-03-16T20:02:07.104Z,97785.41
2019-03-16T20:04:36.465Z,97787.27
2019-03-16T20:07:04.715Z,97778.02
2019-03-16T20:09:34.294Z,97778.59
2019-03-16T20:12:02.168Z,97768.74
2019-03-16T20:14:30.178Z,97765.83
2019-03-16T20:16:59.661Z,97777.80
2019-03-16T20:19:27.626Z,97768.16
2019-03-16T20:21:55.530Z,97761.00
2019-03-16T20:24:23.766Z,97757.29
2019-03-16T20:26:52.334Z,97762.92
2019-03-16T20:29:20.207Z,97759.45
2019-03-16T20:31:47.956Z,97762.94
2019-03-16T20:34:16.178Z,97769.25
2019-03-16T20:36:43.954Z,97760.78
2019-03-16T20:39:11.890Z,97756.48
2019-03-16T20:41:41.247Z,97757.02
2019-03-16T20:44:09.148Z,97761.02
2019-03-16T20:46:37.740Z,97761.31
2019-03-16T20:49:05.807Z,97756.64
2019-03-16T20:51:33.649Z,97760.05
2019-03-16T20:54:01.853Z,97750.17
2019-03-16T20:56:30.433Z,97747.23
2019-03-16T20:58:59.140Z,97749.99
2019-03-16T21:01:27.275Z,97745.23
2019-03-16T21:03:56.103Z,97741.47
2019-03-16T21:06:25.137Z,97742.47
2019-03-16T21:09:02.625Z,97739.44
2019-03-16T21:11:22.981Z,97736.31
2019-03-16T21:13:51.834Z,97746.80
2019-03-16T21:16:20.211Z,97740.28
2019-03-16T21:18:49.234Z,97736.75
2019-03-16T21:21:17.241Z,97741.75
2019-03-16T21:23:46.399Z,97730.32
2019-03-16T21:26:14.747Z,97728.27
2019-03-16T21:28:44.707Z,97739.25
2019-03-16T21:31:12.691Z,97740.83
2019-03-16T21:33:40.424Z,97718.88
2019-03-16T21:36:08.596Z,97726.88
2019-03-16T21:38:38.032Z,97729.13
2019-03-16T21:41:05.925Z,97729.72
2019-03-16T21:43:34.268Z,97723.39
2019-03-16T21:46:02.111Z,97724.43
2019-03-16T21:48:30.225Z,97721.17
2019-03-16T21:50:58.309Z,97720.88
2019-03-16T21:53:27.062Z,97721.47
2019-03-16T21:55:54.817Z,97720.08
2019-03-16T21:58:23.645Z,97721.73
2019-03-16T22:00:51.710Z,97718.31
2019-03-16T22:03:19.834Z,97717.16
2019-03-16T22:05:48.162Z,97714.47
2019-03-16T22:08:16.612Z,97706.05
2019-03-16T22:10:44.556Z,97715.31
2019-03-16T22:13:12.807Z,97706.20
2019-03-16T22:15:40.950Z,97698.36
2019-03-16T22:18:09.499Z,97698.36
2019-03-16T22:20:37.248Z,97702.61
2019-03-16T22:23:06.501Z,97698.75
2019-03-16T22:25:34.940Z,97694.00
2019-03-16T22:28:03.420Z,97695.04
2019-03-16T22:30:32.108Z,97692.31
2019-03-16T22:33:00.255Z,97690.62
2019-03-16T22:35:28.756Z,97686.02
2019-03-16T22:37:56.686Z,97678.14
2019-03-16T22:40:24.689Z,97681.11
2019-03-16T22:42:52.761Z,97654.41
2019-03-16T22:45:20.597Z,97677.63
2019-03-16T22:47:48.577Z,97675.46
2019-03-16T22:50:16.844Z,97673.33
2019-03-16T22:52:45.728Z,97666.92
2019-03-16T22:55:16.125Z,97662.48
2019-03-16T22:57:44.244Z,97659.36
2019-03-16T23:00:12.510Z,97656.15
2019-03-16T23:02:40.754Z,97650.66
2019-03-16T23:05:09.894Z,97646.18
2019-03-16T23:07:38.224Z,97649.45
2019-03-16T23:10:08.291Z,97644.13
2019-03-16T23:12:36.615Z,97643.91
2019-03-16T23:15:05.286Z,97645.95
2019-03-16T23:17:33.315Z,97596.59
2019-03-16T23:20:01.299Z,97596.59
2019-03-16T23:22:29.576Z,97622.73
2019-03-16T23:24:57.235Z,97621.67
2019-03-16T23:27:25.489Z,97619.09
2019-03-16T23:29:54.473Z,97615.52
2019-03-16T23:32:22.359Z,97613.88
2019-03-16T23:34:50.340Z,97614.05
2019-03-16T23:37:18.170Z,97608.90
2019-03-16T23:39:45.911Z,97600.27
2019-03-16T23:42:15.076Z,97595.16
2019-03-16T23:44:46.478Z,97592.95
2019-03-16T23:47:15.646Z,97593.92
2019-03-16T23:49:45.397Z,97581.23
2019-03-16T23:52:13.204Z,97585.83
2019-03-16T23:54:41.081Z,97573.37
2019-03-16T23:57:08.811Z,97583.83
2019-03-16T23:59:36.573Z,97572.97
